Madison, WI (53706)

9:19 AM CDT on September 03, 2015 (GMT -0500)
UW | | Change Station
CLOSE
Current Station
Personal Weather Station
Location: Madison, WI
Elevation: 892 ft
Nearby Weather Stations

Elev 892 ft 43.07 °N, 89.41 °W | Updated 57 seconds ago

Partly Cloudy
Partly Cloudy
76.5 °F
Feels Like 78 °F
N
0.0
Wind Variable Wind from NNW
Gusts 7.0 mph

Today
High -- | Low -- °F
--% Chance of Precip.
Yesterday
High -- | Low -- °F
Precip. -- in
6:23 AM 7:29 PM
Waning Gibbous, 70% visible
Pressure 29.92 in
Visibility 9.0 miles
Clouds Few 8000 ft
Few 25000 ft
Heat Index 78 °F
Dew Point 70 °F
Humidity 82%
Rainfall 0.00 in
Snow Depth Not available.
UV 2 out of 12
Pollen 4.80 out of 12
Air Quality Not available.
Flu Activity Not available.
METAR KMSN 031353Z 32004KT 9SM FEW080 FEW250 24/21 A2994 RMK AO2 SLP132 T02440206
Pressure 29.92 in
Visibility 9.0 miles
Clouds Few 8000 ft
Few 25000 ft
Heat Index 78 °F
Dew Point 70 °F
Humidity 82%
Rainfall 0.00 in
Snow Depth Not available.
UV 2 out of 12
Pollen 4.80 out of 12
Air Quality Not available.
Flu Activity Not available.
METAR KMSN 031353Z 32004KT 9SM FEW080 FEW250 24/21 A2994 RMK AO2 SLP132 T02440206

10-Day Weather Forecast

×

Almanac

Astronomy

Sep. 03, 2015 Rise Set
Actual Time
Civil Twilight
Nautical Twilight
Astronomical Twilight
Moon
Length of Visible Light
Length of Day
Tomorrow will be .
, % of the Moon is Illuminated

Today's Extremes

State Highs State Lows

Community

WunderPhotos

Upload Photos

1,851,959 photos uploaded!

WunderBlogs® & News

Nearby

Air Quality

  Air Quality AQ Index Pollutant
Not available.

Snow Depth

Station Depth Elevation

Earthquake Activity

City Distance Mag. Time & Date
Minimum magnitude displayed is 2.5.

Coastal Water Temperatures

Place Temperature

Stations

Nearby Weather Stations

Station Location Temp. Windchill Dew Point Humidity Wind Precip. Elev Updated Type